Greenbrier, Arkansas
Current Conditions -  °F | °C
As of 1:58 AM on Monday 24 Nov 2014 (Local Time) from KLRF Reporting Station
Overcast Overcast  
Wind Chill: 53°   Ceiling: 2100
Heat Index: 53°   Visibility: 10mi
Dew Point: 46°   Wind: 17mph
Humidity: 77%   Direction: 260°W
Pressure: 29.54"   Gusts: 31mph
Location:  35.23°N, 92.39°W
Report Text: KLRF 240758Z AUTO 26015G27KT 10SM OVC021 11/08 A2954 RMK AO2 PK WND 30029/39 OVC V BKN SLP005 T01140075
Loading
Personal Weather Stations






























Interactive Weather Map New forecast layout! Learn more

10-Day Weather Forecast

Advertisements
Track Severe Weather on mobile